createdAt,value
2023-04-20T00:00:34.784Z,1.20
2023-04-20T00:01:36.616Z,1.38
2023-04-20T00:02:39.980Z,2.42
2023-04-20T00:03:42.220Z,1.80
2023-04-20T00:04:44.152Z,1.40
2023-04-20T00:05:45.911Z,1.40
2023-04-20T00:06:47.740Z,0.93
2023-04-20T00:07:50.150Z,0.93
2023-04-20T00:08:52.117Z,0.80
2023-04-20T00:09:53.944Z,1.40
2023-04-20T00:10:55.855Z,1.90
2023-04-20T00:11:57.610Z,1.85
2023-04-20T00:12:59.404Z,2.05
2023-04-20T00:14:01.192Z,0.80
2023-04-20T00:15:03.106Z,0.85
2023-04-20T00:16:05.346Z,1.48
2023-04-20T00:17:07.670Z,1.65
2023-04-20T00:18:09.521Z,1.05
2023-04-20T00:19:11.778Z,0.90
2023-04-20T00:20:15.440Z,2.53
2023-04-20T00:21:17.452Z,3.65
2023-04-20T00:22:19.443Z,0.80
2023-04-20T00:23:21.331Z,0.93
2023-04-20T00:24:23.597Z,2.92
2023-04-20T00:25:25.536Z,1.25
2023-04-20T00:26:27.819Z,1.20
2023-04-20T00:27:30.571Z,1.75
2023-04-20T00:28:32.402Z,0.75
2023-04-20T00:29:34.877Z,1.00
2023-04-20T00:30:36.801Z,2.10
2023-04-20T00:31:39.697Z,0.60
2023-04-20T00:32:41.540Z,2.80
2023-04-20T00:33:43.345Z,0.75
2023-04-20T00:34:45.220Z,1.48
2023-04-20T00:35:47.155Z,1.77
2023-04-20T00:36:48.923Z,1.90
2023-04-20T00:37:50.687Z,2.20
2023-04-20T00:38:52.845Z,0.73
2023-04-20T00:39:57.793Z,0.80
2023-04-20T00:40:59.810Z,0.93
2023-04-20T00:42:08.573Z,0.93
2023-04-20T00:43:14.053Z,2.35
2023-04-20T00:44:16.016Z,0.82
2023-04-20T00:45:17.803Z,1.88
2023-04-20T00:46:21.198Z,1.25
2023-04-20T00:47:23.029Z,2.15
2023-04-20T00:48:24.919Z,2.83
2023-04-20T00:49:30.167Z,1.58
2023-04-20T00:50:32.393Z,2.80
2023-04-20T00:51:35.659Z,0.82
2023-04-20T00:52:41.134Z,2.35
2023-04-20T00:53:43.080Z,2.03
2023-04-20T00:54:45.110Z,1.27
2023-04-20T00:55:47.347Z,1.73
2023-04-20T00:56:49.652Z,2.55
2023-04-20T00:57:52.877Z,2.35
2023-04-20T00:58:55.070Z,4.88
2023-04-20T00:59:56.904Z,1.77
2023-04-20T01:00:58.718Z,2.60
2023-04-20T01:02:00.753Z,3.95
2023-04-20T01:03:02.848Z,1.60
2023-04-20T01:04:04.967Z,1.30
2023-04-20T01:05:07.033Z,2.35
2023-04-20T01:06:09.333Z,1.45
2023-04-20T01:07:11.203Z,1.88
2023-04-20T01:08:12.990Z,1.88
2023-04-20T01:09:14.963Z,1.83
2023-04-20T01:10:16.965Z,2.05
2023-04-20T01:11:18.881Z,2.83
2023-04-20T01:12:20.749Z,2.80
2023-04-20T01:13:23.143Z,1.58
2023-04-20T01:14:25.078Z,1.15
2023-04-20T01:15:26.902Z,1.92
2023-04-20T01:16:28.802Z,1.15
2023-04-20T01:17:30.860Z,1.98
2023-04-20T01:18:46.518Z,2.15
2023-04-20T01:19:49.219Z,2.13
2023-04-20T01:20:51.069Z,1.98
2023-04-20T01:21:52.835Z,1.10
2023-04-20T01:22:54.763Z,1.95
2023-04-20T01:23:56.605Z,1.88
2023-04-20T01:24:59.790Z,0.95
2023-04-20T01:26:06.960Z,1.83
2023-04-20T01:27:08.744Z,0.93
2023-04-20T01:28:12.589Z,1.90
2023-04-20T01:29:14.383Z,1.92
2023-04-20T01:30:17.765Z,0.90
2023-04-20T01:31:19.924Z,1.13
2023-04-20T01:32:21.848Z,1.33
2023-04-20T01:33:24.010Z,0.80
2023-04-20T01:34:27.014Z,2.00
2023-04-20T01:35:28.960Z,1.05
2023-04-20T01:36:31.211Z,1.30
2023-04-20T01:37:33.279Z,0.85
2023-04-20T01:38:37.899Z,1.40
2023-04-20T01:39:41.022Z,1.15
2023-04-20T01:40:43.004Z,1.58
2023-04-20T01:41:45.764Z,1.10
2023-04-20T01:42:47.647Z,1.02
2023-04-20T01:43:50.095Z,1.58
2023-04-20T01:44:51.959Z,1.10
2023-04-20T01:45:53.934Z,1.23
2023-04-20T01:46:55.860Z,1.83
2023-04-20T01:47:59.013Z,1.02
2023-04-20T01:49:01.196Z,0.65
2023-04-20T01:50:03.241Z,0.63
2023-04-20T01:51:05.092Z,0.80
2023-04-20T01:52:09.250Z,0.82
2023-04-20T01:53:11.126Z,0.85
2023-04-20T01:54:13.452Z,0.90
2023-04-20T01:55:15.344Z,1.45
2023-04-20T01:56:17.142Z,1.33
2023-04-20T01:57:18.934Z,1.45
2023-04-20T01:58:20.835Z,0.88
2023-04-20T01:59:22.709Z,3.35
2023-04-20T02:00:24.584Z,1.23
2023-04-20T02:01:26.500Z,2.08
2023-04-20T02:02:28.480Z,0.90
2023-04-20T02:03:30.400Z,0.60
2023-04-20T02:04:32.392Z,0.90
2023-04-20T02:05:35.476Z,1.05
2023-04-20T02:06:37.237Z,1.00
2023-04-20T02:07:39.098Z,1.88
2023-04-20T02:08:41.605Z,0.95
2023-04-20T02:09:43.386Z,1.25
2023-04-20T02:10:45.300Z,0.70
2023-04-20T02:11:47.808Z,2.05
2023-04-20T02:12:50.885Z,2.28
2023-04-20T02:13:52.799Z,1.00
2023-04-20T02:14:54.834Z,0.60
2023-04-20T02:15:57.185Z,0.90
2023-04-20T02:16:59.326Z,0.60
2023-04-20T02:18:01.474Z,0.93
2023-04-20T02:19:03.341Z,1.10
2023-04-20T02:20:09.417Z,1.38
2023-04-20T02:21:11.849Z,1.27
2023-04-20T02:22:14.047Z,0.55
2023-04-20T02:23:15.913Z,1.60
2023-04-20T02:24:17.729Z,1.10
2023-04-20T02:25:21.942Z,0.75
2023-04-20T02:26:23.911Z,1.60
2023-04-20T02:27:25.720Z,0.77
2023-04-20T02:28:27.535Z,0.55
2023-04-20T02:29:29.385Z,1.75
2023-04-20T02:30:31.496Z,0.60
2023-04-20T02:31:34.391Z,0.60
2023-04-20T02:32:36.648Z,0.50
2023-04-20T02:33:38.958Z,1.13
2023-04-20T02:34:40.846Z,1.00
2023-04-20T02:35:42.638Z,0.70
2023-04-20T02:36:46.388Z,0.68
2023-04-20T02:37:48.289Z,1.42
2023-04-20T02:38:50.104Z,9.00
2023-04-20T02:39:52.184Z,8.70
2023-04-20T02:40:54.040Z,5.07
2023-04-20T02:41:56.071Z,3.85
2023-04-20T02:42:58.647Z,7.75
2023-04-20T02:44:01.764Z,6.97
2023-04-20T02:45:04.117Z,1.92
2023-04-20T02:46:06.175Z,2.45
2023-04-20T02:47:08.062Z,1.40
2023-04-20T02:48:10.018Z,3.70
2023-04-20T02:49:12.421Z,2.05
2023-04-20T02:50:18.058Z,3.03
2023-04-20T02:51:38.396Z,1.30
2023-04-20T02:52:40.646Z,1.77
2023-04-20T02:53:42.599Z,2.70
2023-04-20T02:54:53.864Z,1.33
2023-04-20T02:55:55.732Z,2.35
2023-04-20T02:57:07.231Z,2.28
2023-04-20T02:58:09.089Z,1.58
2023-04-20T02:59:30.810Z,3.20
2023-04-20T03:00:49.515Z,2.17
2023-04-20T03:01:51.544Z,2.70
2023-04-20T03:02:56.351Z,1.02
2023-04-20T03:03:59.405Z,1.58
2023-04-20T03:05:02.253Z,1.05
2023-04-20T03:06:12.127Z,1.35
2023-04-20T03:07:16.927Z,3.53
2023-04-20T03:08:18.946Z,8.05
2023-04-20T03:09:23.368Z,6.28
2023-04-20T03:10:31.167Z,4.35
2023-04-20T03:11:40.996Z,2.38
2023-04-20T03:12:44.088Z,3.05
2023-04-20T03:13:57.533Z,4.18
2023-04-20T03:14:59.399Z,1.92
2023-04-20T03:16:19.068Z,2.17
2023-04-20T03:17:24.979Z,1.90
2023-04-20T03:18:26.946Z,3.92
2023-04-20T03:19:28.952Z,1.15
2023-04-20T03:20:31.137Z,1.27
2023-04-20T03:21:33.907Z,1.02
2023-04-20T03:22:35.705Z,1.48
2023-04-20T03:23:38.104Z,2.97
2023-04-20T03:24:41.108Z,2.20
2023-04-20T03:26:01.909Z,1.63
2023-04-20T03:27:18.924Z,1.17
2023-04-20T03:28:35.037Z,3.33
2023-04-20T03:29:37.422Z,1.27
2023-04-20T03:30:39.300Z,3.08
2023-04-20T03:31:49.888Z,1.58
2023-04-20T03:32:51.855Z,1.70
2023-04-20T03:33:54.005Z,3.92
2023-04-20T03:34:55.853Z,2.88
2023-04-20T03:35:57.858Z,1.80
2023-04-20T03:36:59.694Z,3.22
2023-04-20T03:38:01.659Z,2.20
2023-04-20T03:39:04.589Z,1.35
2023-04-20T03:40:08.311Z,2.70
2023-04-20T03:41:10.288Z,1.42
2023-04-20T03:42:12.915Z,1.83
2023-04-20T03:43:14.825Z,1.30
2023-04-20T03:44:17.888Z,1.95
2023-04-20T03:45:19.715Z,0.93
2023-04-20T03:46:23.198Z,1.30
2023-04-20T03:47:25.481Z,2.78
2023-04-20T03:48:28.113Z,0.90
2023-04-20T03:49:30.385Z,1.40
2023-04-20T03:50:32.341Z,0.88
2023-04-20T03:51:34.365Z,3.75
2023-04-20T03:52:36.339Z,6.88
2023-04-20T03:53:40.430Z,3.22
2023-04-20T03:54:44.762Z,4.45
2023-04-20T03:55:50.261Z,3.05
2023-04-20T03:56:55.918Z,2.83
2023-04-20T03:57:58.637Z,3.35
2023-04-20T03:59:03.259Z,3.05
2023-04-20T04:00:05.938Z,3.40
2023-04-20T04:01:19.764Z,1.85
2023-04-20T04:02:23.978Z,1.30
2023-04-20T04:03:27.574Z,2.78
2023-04-20T04:04:29.762Z,1.52
2023-04-20T04:05:33.215Z,1.88
2023-04-20T04:06:35.965Z,1.98
2023-04-20T04:07:37.738Z,1.63
2023-04-20T04:08:39.805Z,1.25
2023-04-20T04:09:41.740Z,1.17
2023-04-20T04:10:44.385Z,2.13
2023-04-20T04:11:46.201Z,0.70
2023-04-20T04:12:48.679Z,2.45
2023-04-20T04:13:50.887Z,1.63
2023-04-20T04:14:53.122Z,2.10
2023-04-20T04:15:57.816Z,2.30
2023-04-20T04:17:00.377Z,1.15
2023-04-20T04:18:02.698Z,1.77
2023-04-20T04:19:06.693Z,1.13
2023-04-20T04:20:09.238Z,1.30
2023-04-20T04:21:11.943Z,1.25
2023-04-20T04:22:16.921Z,0.98
2023-04-20T04:23:33.943Z,1.75
2023-04-20T04:25:11.875Z,1.00
2023-04-20T04:26:14.526Z,0.70
2023-04-20T04:27:18.679Z,2.97
2023-04-20T04:28:28.616Z,3.50
2023-04-20T04:29:39.280Z,3.47
2023-04-20T04:30:44.563Z,1.00
2023-04-20T04:31:46.778Z,1.55
2023-04-20T04:32:52.153Z,1.35
2023-04-20T04:33:54.229Z,1.80
2023-04-20T04:35:02.485Z,1.95
2023-04-20T04:36:05.332Z,1.15
2023-04-20T04:37:09.360Z,3.90
2023-04-20T04:38:18.528Z,2.50
2023-04-20T04:39:23.334Z,2.05
2023-04-20T04:40:33.760Z,3.03
2023-04-20T04:41:37.560Z,3.92
2023-04-20T04:42:49.797Z,3.05
2023-04-20T04:43:53.425Z,2.85
2023-04-20T04:45:06.148Z,3.05
2023-04-20T04:46:12.497Z,3.05
2023-04-20T04:47:14.540Z,2.53
2023-04-20T04:48:16.333Z,4.50
2023-04-20T04:49:21.002Z,2.25
2023-04-20T04:50:23.516Z,3.00
2023-04-20T04:51:27.060Z,1.90
2023-04-20T04:52:28.857Z,5.40
2023-04-20T04:53:30.839Z,4.88
2023-04-20T04:54:32.609Z,4.55
2023-04-20T04:55:34.576Z,2.05
2023-04-20T04:56:36.434Z,3.95
2023-04-20T04:57:38.790Z,4.03
2023-04-20T04:58:40.747Z,2.88
2023-04-20T04:59:42.553Z,1.73
2023-04-20T05:00:44.457Z,6.13
2023-04-20T05:01:46.348Z,8.13
2023-04-20T05:02:48.334Z,3.90
2023-04-20T05:03:50.532Z,7.78
2023-04-20T05:04:52.608Z,2.72
2023-04-20T05:05:55.042Z,4.75
2023-04-20T05:06:56.978Z,5.63
2023-04-20T05:07:58.854Z,9.23
2023-04-20T05:09:00.871Z,4.45
2023-04-20T05:10:02.666Z,11.68
2023-04-20T05:11:04.532Z,7.50
2023-04-20T05:12:06.794Z,8.00
2023-04-20T05:13:08.597Z,5.88
2023-04-20T05:14:10.514Z,4.70
2023-04-20T05:15:12.355Z,7.03
2023-04-20T05:16:14.330Z,4.47
2023-04-20T05:17:16.197Z,5.10
2023-04-20T05:18:18.018Z,6.43
2023-04-20T05:19:19.912Z,8.10
2023-04-20T05:20:21.799Z,11.38
2023-04-20T05:21:23.699Z,11.10
2023-04-20T05:22:25.573Z,7.32
2023-04-20T05:23:27.338Z,9.40
2023-04-20T05:24:29.248Z,7.05
2023-04-20T05:25:32.770Z,8.23
2023-04-20T05:26:34.563Z,8.88
2023-04-20T05:27:36.420Z,9.32
2023-04-20T05:28:38.303Z,9.63
2023-04-20T05:29:40.096Z,15.32
2023-04-20T05:30:41.927Z,5.82
2023-04-20T05:31:43.861Z,10.35
2023-04-20T05:32:46.424Z,5.85
2023-04-20T05:33:48.997Z,7.35
2023-04-20T05:34:51.013Z,9.95
2023-04-20T05:35:58.620Z,14.13
2023-04-20T05:37:00.511Z,15.40
2023-04-20T05:38:06.149Z,10.25
2023-04-20T05:39:08.251Z,11.45
2023-04-20T05:40:11.238Z,17.50
2023-04-20T05:41:13.220Z,14.70
2023-04-20T05:42:15.148Z,10.25
2023-04-20T05:43:18.752Z,11.05
2023-04-20T05:44:20.713Z,15.40
2023-04-20T05:45:22.551Z,6.97
2023-04-20T05:46:24.405Z,7.68
2023-04-20T05:47:27.615Z,11.50
2023-04-20T05:48:30.313Z,12.55
2023-04-20T05:49:33.090Z,10.13
2023-04-20T05:50:35.088Z,10.80
2023-04-20T05:51:36.944Z,10.85
2023-04-20T05:52:38.901Z,9.02
2023-04-20T05:53:40.909Z,19.73
2023-04-20T05:54:42.695Z,13.07
2023-04-20T05:55:44.461Z,12.77
2023-04-20T05:56:46.448Z,13.07
2023-04-20T05:57:48.283Z,16.63
2023-04-20T05:58:50.295Z,17.88
2023-04-20T05:59:52.279Z,11.88
2023-04-20T06:00:54.652Z,9.73
2023-04-20T06:01:56.632Z,11.65
2023-04-20T06:02:58.634Z,11.52
2023-04-20T06:04:01.052Z,13.20
2023-04-20T06:05:03.494Z,7.13
2023-04-20T06:06:05.945Z,7.70
2023-04-20T06:07:07.773Z,6.15
2023-04-20T06:08:09.618Z,6.50
2023-04-20T06:09:11.433Z,7.15
2023-04-20T06:10:13.567Z,7.03
2023-04-20T06:11:15.555Z,10.23
2023-04-20T06:12:17.344Z,10.93
2023-04-20T06:13:19.176Z,10.68
2023-04-20T06:14:20.965Z,8.40
2023-04-20T06:15:23.073Z,12.70
2023-04-20T06:16:25.070Z,9.10
2023-04-20T06:17:26.980Z,9.98
2023-04-20T06:18:29.309Z,10.60
2023-04-20T06:19:31.104Z,8.30
2023-04-20T06:20:32.918Z,6.75
2023-04-20T06:21:35.571Z,13.65
2023-04-20T06:22:42.334Z,7.68
2023-04-20T06:23:44.684Z,17.15
2023-04-20T06:24:46.682Z,15.73
2023-04-20T06:25:48.546Z,7.15
2023-04-20T06:26:50.817Z,8.40
2023-04-20T06:27:53.113Z,12.23
2023-04-20T06:28:55.092Z,8.05
2023-04-20T06:29:56.897Z,2.85
2023-04-20T06:30:58.676Z,8.73
2023-04-20T06:32:00.528Z,7.97
2023-04-20T06:33:03.253Z,7.30
2023-04-20T06:34:05.108Z,7.68
2023-04-20T06:35:07.581Z,5.45
2023-04-20T06:36:09.699Z,7.72
2023-04-20T06:37:11.481Z,5.78
2023-04-20T06:38:13.361Z,4.43
2023-04-20T06:39:17.565Z,7.63
2023-04-20T06:40:19.566Z,5.07
2023-04-20T06:41:21.519Z,8.90
2023-04-20T06:42:23.394Z,6.43
2023-04-20T06:43:25.869Z,7.15
2023-04-20T06:44:27.684Z,6.82
2023-04-20T06:45:29.503Z,7.60
2023-04-20T06:46:31.602Z,6.65
2023-04-20T06:47:34.265Z,3.33
2023-04-20T06:48:36.129Z,7.03
2023-04-20T06:49:39.372Z,3.38
2023-04-20T06:50:41.295Z,5.38
2023-04-20T06:51:43.428Z,9.23
2023-04-20T06:52:45.545Z,4.32
2023-04-20T06:53:47.320Z,5.85
2023-04-20T06:54:49.075Z,2.55
2023-04-20T06:55:50.932Z,4.90
2023-04-20T06:56:52.903Z,3.25
2023-04-20T06:57:54.665Z,5.43
2023-04-20T06:58:56.432Z,2.65
2023-04-20T06:59:59.227Z,7.45
2023-04-20T07:01:01.991Z,3.15
2023-04-20T07:02:04.227Z,7.70
2023-04-20T07:03:06.252Z,7.97
2023-04-20T07:04:08.306Z,7.80
2023-04-20T07:05:11.479Z,4.53
2023-04-20T07:06:13.321Z,7.93
2023-04-20T07:07:15.233Z,6.10
2023-04-20T07:08:17.101Z,13.77
2023-04-20T07:09:19.581Z,6.53
2023-04-20T07:10:21.938Z,6.78
2023-04-20T07:11:24.669Z,6.95
2023-04-20T07:12:26.616Z,5.10
2023-04-20T07:13:33.712Z,4.32
2023-04-20T07:14:35.921Z,3.35
2023-04-20T07:15:38.041Z,5.50
2023-04-20T07:16:40.004Z,3.72
2023-04-20T07:17:41.982Z,4.80
2023-04-20T07:18:43.878Z,4.68
2023-04-20T07:19:45.728Z,7.38
2023-04-20T07:20:47.514Z,6.60
2023-04-20T07:21:49.328Z,4.40
2023-04-20T07:22:51.253Z,7.72
2023-04-20T07:23:53.058Z,4.10
2023-04-20T07:24:54.838Z,2.60
2023-04-20T07:25:56.617Z,2.95
2023-04-20T07:26:58.498Z,4.80
2023-04-20T07:28:00.400Z,4.25
2023-04-20T07:29:02.609Z,8.85
2023-04-20T07:30:06.831Z,5.90
2023-04-20T07:31:08.634Z,3.70
2023-04-20T07:32:10.480Z,3.97
2023-04-20T07:33:12.427Z,3.60
2023-04-20T07:34:14.212Z,4.45
2023-04-20T07:35:16.018Z,5.82
2023-04-20T07:36:17.928Z,2.17
2023-04-20T07:37:19.834Z,1.83
2023-04-20T07:38:21.617Z,3.80
2023-04-20T07:39:25.513Z,1.75
2023-04-20T07:40:27.401Z,5.63
2023-04-20T07:41:29.244Z,2.17
2023-04-20T07:42:32.875Z,3.72
2023-04-20T07:43:34.732Z,4.22
2023-04-20T07:44:37.223Z,3.92
2023-04-20T07:45:42.709Z,4.22
2023-04-20T07:46:44.470Z,6.57
2023-04-20T07:47:47.467Z,7.10
2023-04-20T07:48:49.654Z,2.53
2023-04-20T07:49:51.536Z,3.72
2023-04-20T07:50:53.430Z,2.20
2023-04-20T07:52:03.227Z,8.57
2023-04-20T07:53:11.342Z,6.90
2023-04-20T07:54:13.190Z,3.00
2023-04-20T07:55:15.886Z,2.63
2023-04-20T07:56:17.643Z,6.03
2023-04-20T07:57:21.077Z,5.45
2023-04-20T07:58:23.092Z,3.25
2023-04-20T07:59:25.006Z,6.22
2023-04-20T08:00:27.037Z,3.05
2023-04-20T08:01:28.842Z,4.97
2023-04-20T08:02:32.470Z,4.80
2023-04-20T08:03:35.589Z,3.67
2023-04-20T08:04:41.172Z,4.65
2023-04-20T08:05:43.235Z,7.68
2023-04-20T08:06:45.086Z,5.47
2023-04-20T08:07:47.183Z,7.65
2023-04-20T08:08:49.078Z,5.03
2023-04-20T08:09:50.870Z,3.92
2023-04-20T08:10:52.861Z,13.55
2023-04-20T08:11:54.632Z,6.57
2023-04-20T08:12:56.461Z,7.10
2023-04-20T08:13:58.511Z,7.78
2023-04-20T08:15:02.017Z,4.93
2023-04-20T08:16:04.012Z,15.85
2023-04-20T08:17:06.277Z,7.18
2023-04-20T08:18:08.130Z,5.95
2023-04-20T08:20:14.552Z,21.92
2023-04-20T08:21:16.411Z,22.20
2023-04-20T08:22:18.207Z,18.90
2023-04-20T08:23:20.080Z,13.63
2023-04-20T08:24:21.924Z,11.10
2023-04-20T08:25:25.283Z,8.30
2023-04-20T08:26:27.913Z,10.00
2023-04-20T08:27:30.701Z,10.35
2023-04-20T08:28:34.071Z,8.00
2023-04-20T08:29:36.756Z,4.10
2023-04-20T08:30:41.191Z,4.47
2023-04-20T08:32:45.165Z,4.05
2023-04-20T08:33:47.420Z,7.93
2023-04-20T08:34:50.514Z,7.50
2023-04-20T08:35:52.758Z,5.82
2023-04-20T08:36:54.612Z,4.60
2023-04-20T08:37:56.607Z,4.60
2023-04-20T08:39:07.749Z,6.57
2023-04-20T08:40:11.131Z,5.68
2023-04-20T08:41:15.565Z,8.35
2023-04-20T08:42:17.549Z,4.38
2023-04-20T08:43:21.185Z,5.18
2023-04-20T08:44:24.850Z,8.75
2023-04-20T08:45:27.289Z,7.85
2023-04-20T08:46:29.532Z,10.43
2023-04-20T08:47:33.456Z,2.85
2023-04-20T08:48:38.151Z,17.20
2023-04-20T08:49:40.361Z,17.67
2023-04-20T08:50:42.505Z,12.52
2023-04-20T08:51:45.531Z,7.18
2023-04-20T08:52:47.309Z,10.52
2023-04-20T08:53:49.260Z,5.80
2023-04-20T08:54:56.662Z,15.43
2023-04-20T08:56:00.001Z,6.55
2023-04-20T08:57:02.206Z,7.65
2023-04-20T08:58:04.116Z,5.40
2023-04-20T08:59:10.087Z,15.93
2023-04-20T09:00:13.984Z,9.60
2023-04-20T09:01:19.963Z,6.38
2023-04-20T09:02:24.802Z,6.18
2023-04-20T09:03:38.187Z,8.82
2023-04-20T09:04:41.312Z,6.20
2023-04-20T09:05:45.058Z,7.28
2023-04-20T09:06:52.190Z,4.75
2023-04-20T09:07:56.783Z,12.02
2023-04-20T09:08:58.667Z,10.70
2023-04-20T09:10:01.236Z,12.07
2023-04-20T09:11:03.190Z,11.13
2023-04-20T09:12:07.984Z,16.20
2023-04-20T09:13:21.374Z,9.02
2023-04-20T09:14:23.116Z,11.70
2023-04-20T09:15:29.147Z,4.90
2023-04-20T09:16:31.571Z,4.90
2023-04-20T09:17:35.178Z,30.23
2023-04-20T09:18:38.100Z,11.75
2023-04-20T09:19:41.261Z,13.63
2023-04-20T09:20:43.467Z,11.07
2023-04-20T09:21:50.376Z,15.40
2023-04-20T09:22:54.352Z,7.35
2023-04-20T09:24:01.308Z,10.07
2023-04-20T09:25:16.400Z,8.98
2023-04-20T09:26:19.017Z,8.75
2023-04-20T09:27:22.744Z,9.13
2023-04-20T09:28:24.536Z,8.88
2023-04-20T09:29:26.338Z,5.25
2023-04-20T09:30:42.419Z,7.05
2023-04-20T09:31:44.771Z,6.57
2023-04-20T09:32:47.372Z,3.97
2023-04-20T09:34:03.974Z,4.78
2023-04-20T09:35:08.049Z,12.95
2023-04-20T09:36:11.100Z,27.85
2023-04-20T09:37:16.754Z,23.60
2023-04-20T09:38:27.173Z,15.27
2023-04-20T09:39:30.606Z,13.38
2023-04-20T09:40:32.649Z,14.40
2023-04-20T09:41:35.918Z,6.75
2023-04-20T09:42:42.560Z,9.30
2023-04-20T09:43:45.658Z,8.80
2023-04-20T09:44:48.590Z,9.70
2023-04-20T09:45:51.026Z,13.93
2023-04-20T09:46:53.359Z,20.98
2023-04-20T09:47:56.144Z,10.02
2023-04-20T09:48:59.897Z,9.35
2023-04-20T09:50:14.647Z,7.15
2023-04-20T09:51:22.158Z,8.90
2023-04-20T09:52:24.821Z,10.10
2023-04-20T09:53:26.838Z,11.85
2023-04-20T09:54:29.028Z,6.55
2023-04-20T09:55:31.971Z,7.03
2023-04-20T09:56:35.843Z,7.93
2023-04-20T09:57:39.158Z,7.38
2023-04-20T09:58:41.548Z,8.52
2023-04-20T09:59:44.312Z,6.95
2023-04-20T10:00:46.363Z,5.05
2023-04-20T10:01:48.428Z,8.85
2023-04-20T10:02:50.683Z,6.70
2023-04-20T10:03:56.686Z,7.05
2023-04-20T10:04:59.598Z,8.52
2023-04-20T10:06:01.467Z,6.07
2023-04-20T10:07:03.660Z,5.30
2023-04-20T10:08:06.269Z,6.20
2023-04-20T10:09:08.748Z,6.28
2023-04-20T10:10:15.931Z,5.80
2023-04-20T10:11:40.470Z,6.13
2023-04-20T10:12:50.780Z,3.88
2023-04-20T10:13:52.788Z,3.83
2023-04-20T10:14:57.957Z,4.50
2023-04-20T10:15:59.723Z,4.03
2023-04-20T10:17:06.800Z,4.78
2023-04-20T10:18:19.326Z,3.88
2023-04-20T10:19:21.221Z,2.83
2023-04-20T10:20:24.229Z,4.40
2023-04-20T10:21:26.402Z,5.72
2023-04-20T10:22:33.522Z,6.05
2023-04-20T10:23:35.517Z,4.65
2023-04-20T10:24:40.945Z,3.88
2023-04-20T10:25:45.097Z,5.53
2023-04-20T10:26:47.292Z,3.33
2023-04-20T10:27:54.253Z,6.03
2023-04-20T10:28:56.166Z,7.75
2023-04-20T10:30:09.922Z,11.30
2023-04-20T10:31:14.181Z,7.03
2023-04-20T10:32:26.862Z,8.13
2023-04-20T10:33:28.983Z,3.15
2023-04-20T10:34:35.229Z,3.97
2023-04-20T10:35:45.716Z,4.60
2023-04-20T10:36:47.679Z,5.63
2023-04-20T10:37:51.611Z,3.80
2023-04-20T10:38:53.568Z,5.45
2023-04-20T10:39:55.487Z,3.45
2023-04-20T10:40:58.007Z,6.85
2023-04-20T10:42:01.345Z,11.77
2023-04-20T10:43:03.103Z,18.77
2023-04-20T10:44:11.754Z,14.88
2023-04-20T10:45:13.628Z,12.48
2023-04-20T10:46:16.128Z,10.02
2023-04-20T10:47:26.252Z,10.90
2023-04-20T10:48:28.192Z,14.90
2023-04-20T10:49:31.775Z,7.40
2023-04-20T10:50:33.752Z,8.80
2023-04-20T10:51:36.337Z,8.27
2023-04-20T10:52:40.005Z,7.70
2023-04-20T10:53:41.834Z,2.15
2023-04-20T10:54:43.611Z,4.88
2023-04-20T10:55:45.880Z,8.40
2023-04-20T10:56:52.281Z,7.53
2023-04-20T10:57:54.115Z,6.18
2023-04-20T10:59:07.059Z,6.47
2023-04-20T11:00:20.521Z,5.63
2023-04-20T11:01:22.483Z,4.30
2023-04-20T11:02:24.552Z,6.30
2023-04-20T11:03:29.313Z,4.00
2023-04-20T11:04:35.558Z,5.40
2023-04-20T11:05:37.622Z,3.50
2023-04-20T11:06:42.037Z,6.85
2023-04-20T11:07:56.444Z,5.90
2023-04-20T11:08:58.375Z,5.18
2023-04-20T11:10:00.172Z,6.90
2023-04-20T11:11:02.092Z,4.22
2023-04-20T11:12:08.543Z,4.97
2023-04-20T11:13:23.891Z,2.45
2023-04-20T11:14:26.098Z,3.58
2023-04-20T11:15:35.399Z,6.78
2023-04-20T11:16:49.543Z,5.03
2023-04-20T11:17:53.557Z,7.13
2023-04-20T11:18:55.804Z,2.55
2023-04-20T11:20:06.649Z,2.10
2023-04-20T11:21:08.424Z,4.35
2023-04-20T11:22:21.662Z,8.80
2023-04-20T11:23:25.506Z,11.27
2023-04-20T11:24:29.286Z,12.32
2023-04-20T11:25:31.820Z,6.20
2023-04-20T11:26:43.550Z,6.75
2023-04-20T11:27:45.763Z,4.30
2023-04-20T11:28:56.703Z,4.20
2023-04-20T11:29:59.777Z,7.93
2023-04-20T11:31:02.020Z,5.55
2023-04-20T11:32:05.539Z,5.75
2023-04-20T11:33:07.614Z,6.07
2023-04-20T11:34:17.736Z,4.22
2023-04-20T11:35:19.724Z,3.30
2023-04-20T11:36:26.625Z,4.45
2023-04-20T11:37:29.175Z,3.22
2023-04-20T11:38:34.887Z,3.03
2023-04-20T11:39:37.812Z,7.53
2023-04-20T11:40:39.659Z,4.45
2023-04-20T11:41:42.573Z,7.32
2023-04-20T11:42:44.851Z,5.22
2023-04-20T11:43:46.791Z,6.15
2023-04-20T11:44:48.535Z,3.17
2023-04-20T11:45:50.364Z,7.78
2023-04-20T11:46:54.365Z,4.85
2023-04-20T11:47:56.230Z,5.15
2023-04-20T11:48:59.981Z,3.58
2023-04-20T11:50:01.775Z,2.83
2023-04-20T11:51:03.998Z,3.80
2023-04-20T11:52:06.052Z,5.55
2023-04-20T11:53:09.896Z,6.95
2023-04-20T11:54:11.879Z,4.47
2023-04-20T11:55:13.979Z,4.78
2023-04-20T11:56:16.052Z,6.60
2023-04-20T11:57:18.081Z,4.65
2023-04-20T11:58:19.821Z,7.38
2023-04-20T11:59:21.868Z,6.50
2023-04-20T12:00:23.968Z,3.75
2023-04-20T12:01:25.909Z,3.70
2023-04-20T12:02:27.821Z,4.35
2023-04-20T12:03:30.023Z,4.15
2023-04-20T12:04:33.081Z,3.67
2023-04-20T12:05:35.327Z,3.08
2023-04-20T12:06:37.283Z,8.05
2023-04-20T12:07:39.192Z,5.88
2023-04-20T12:08:41.999Z,8.13
2023-04-20T12:09:44.569Z,6.97
2023-04-20T12:10:47.157Z,6.15
2023-04-20T12:11:49.030Z,4.32
2023-04-20T12:12:50.974Z,4.15
2023-04-20T12:13:54.409Z,6.22
2023-04-20T12:14:56.239Z,6.57
2023-04-20T12:15:58.171Z,4.05
2023-04-20T12:17:01.245Z,2.25
2023-04-20T12:18:03.124Z,3.95
2023-04-20T12:19:04.943Z,3.22
2023-04-20T12:20:08.864Z,5.38
2023-04-20T12:21:10.866Z,3.42
2023-04-20T12:22:12.793Z,3.53
2023-04-20T12:23:14.574Z,7.45
2023-04-20T12:24:16.311Z,10.10
2023-04-20T12:25:18.130Z,9.65
2023-04-20T12:26:19.994Z,6.13
2023-04-20T12:27:21.787Z,12.57
2023-04-20T12:28:23.683Z,9.02
2023-04-20T12:29:26.103Z,10.05
2023-04-20T12:30:27.858Z,8.07
2023-04-20T12:31:29.841Z,6.85
2023-04-20T12:32:31.662Z,4.65
2023-04-20T12:33:33.691Z,6.22
2023-04-20T12:34:35.593Z,7.63
2023-04-20T12:35:37.436Z,6.30
2023-04-20T12:36:39.319Z,7.28
2023-04-20T12:37:41.594Z,6.55
2023-04-20T12:38:43.458Z,4.43
2023-04-20T12:39:45.518Z,5.57
2023-04-20T12:40:47.286Z,8.88
2023-04-20T12:41:49.053Z,5.82
2023-04-20T12:42:50.904Z,8.02
2023-04-20T12:43:52.751Z,8.02
2023-04-20T12:44:54.741Z,8.43
2023-04-20T12:45:56.580Z,7.28
2023-04-20T12:46:58.370Z,4.55
2023-04-20T12:48:00.702Z,9.23
2023-04-20T12:49:03.217Z,3.95
2023-04-20T12:50:07.408Z,3.80
2023-04-20T12:51:09.255Z,5.68
2023-04-20T12:52:11.184Z,4.60
2023-04-20T12:53:13.074Z,6.05
2023-04-20T12:54:14.957Z,4.28
2023-04-20T12:55:16.997Z,6.13
2023-04-20T12:56:18.968Z,5.40
2023-04-20T12:57:20.716Z,10.18
2023-04-20T12:58:22.451Z,6.50
2023-04-20T12:59:24.337Z,5.97
2023-04-20T13:00:26.352Z,10.75
2023-04-20T13:01:28.233Z,6.80
2023-04-20T13:02:31.240Z,5.57
2023-04-20T13:03:33.331Z,4.93
2023-04-20T13:04:36.479Z,11.63
2023-04-20T13:05:38.340Z,12.65
2023-04-20T13:06:40.261Z,10.88
2023-04-20T13:07:42.165Z,7.40
2023-04-20T13:08:44.005Z,7.85
2023-04-20T13:09:46.047Z,3.40
2023-04-20T13:10:48.058Z,3.60
2023-04-20T13:11:49.824Z,3.60
2023-04-20T13:12:54.724Z,5.38
2023-04-20T13:13:58.144Z,5.50
2023-04-20T13:14:59.947Z,3.67
2023-04-20T13:16:01.765Z,4.35
2023-04-20T13:17:03.709Z,4.07
2023-04-20T13:18:06.266Z,7.13
2023-04-20T13:19:08.210Z,8.95
2023-04-20T13:20:10.654Z,2.50
2023-04-20T13:21:12.494Z,5.88
2023-04-20T13:22:18.052Z,2.33
2023-04-20T13:23:20.711Z,3.20
2023-04-20T13:24:22.873Z,4.45
2023-04-20T13:25:26.777Z,8.07
2023-04-20T13:26:28.996Z,5.57
2023-04-20T13:27:31.606Z,5.90
2023-04-20T13:28:33.698Z,5.03
2023-04-20T13:29:35.562Z,3.67
2023-04-20T13:30:38.088Z,2.00
2023-04-20T13:31:40.743Z,6.40
2023-04-20T13:32:42.709Z,5.82
2023-04-20T13:33:44.582Z,1.45
2023-04-20T13:34:46.404Z,3.60
2023-04-20T13:35:48.268Z,11.75
2023-04-20T13:36:51.252Z,7.35
2023-04-20T13:37:53.073Z,4.97
2023-04-20T13:38:55.943Z,4.90
2023-04-20T13:39:57.877Z,8.63
2023-04-20T13:40:59.731Z,4.88
2023-04-20T13:42:02.027Z,6.05
2023-04-20T13:43:04.175Z,8.15
2023-04-20T13:44:07.922Z,3.67
2023-04-20T13:45:10.427Z,4.32
2023-04-20T13:46:12.607Z,4.53
2023-04-20T13:47:14.952Z,4.32
2023-04-20T13:48:16.817Z,2.03
2023-04-20T13:49:22.506Z,4.75
2023-04-20T13:50:24.566Z,2.90
2023-04-20T13:51:27.189Z,2.20
2023-04-20T13:52:29.024Z,4.47
2023-04-20T13:53:30.831Z,3.78
2023-04-20T13:54:32.743Z,4.75
2023-04-20T13:55:34.532Z,3.38
2023-04-20T13:56:36.522Z,5.32
2023-04-20T13:57:38.317Z,3.97
2023-04-20T13:58:40.086Z,6.28
2023-04-20T13:59:42.469Z,6.00
2023-04-20T14:00:44.875Z,2.10
2023-04-20T14:01:46.808Z,6.82